This is the latest recevied weather packets stored in our database for station/object N7WSS. If no packets are shown the sender has not sent any weather packets the latest 1 day(s).
| Time | Temp. | Humidity | Pressure | Rain* | Wind** | Luminosity | Snow |
|---|---|---|---|---|---|---|---|
| 1778012394 | 23.33° C | 40% | 1009.4 hPa | 0 mm | 2.68 m/s, 36° | - | - |
| 1778012092 | 22.78° C | 41% | 1009.4 hPa | 0 mm | 3.13 m/s, 104° | - | - |
| 1778011789 | 22.78° C | 42% | 1009.3 hPa | 0 mm | 1.34 m/s, 42° | - | - |
| 1778011487 | 22.78° C | 41% | 1009.5 hPa | 0 mm | 2.24 m/s, 57° | - | - |
| 1778011182 | 23.33° C | 41% | 1009.6 hPa | 0 mm | 1.34 m/s, 103° | - | - |
| 1778010879 | 22.78° C | 39% | 1009.4 hPa | 0 mm | 1.79 m/s, 124° | - | - |
| 1778010577 | 24.44° C | 36% | 1009.5 hPa | 0 mm | 3.13 m/s, 82° | - | - |
| 1778010274 | 23.89° C | 38% | 1009.6 hPa | 0 mm | 2.68 m/s, 93° | - | - |
| 1778009974 | 23.33° C | 38% | 1009.5 hPa | 0 mm | 1.79 m/s, 137° | - | - |
| 1778009672 | 22.22° C | 42% | 1009.6 hPa | 0 mm | 1.79 m/s, 265° | - | - |
| 1778009370 | 21.67° C | 50% | 1009.5 hPa | 0 mm | 0.45 m/s, 110° | - | - |
| 1778009068 | 22.22° C | 47% | 1009.7 hPa | 0 mm | 1.79 m/s, 164° | - | - |
| 1778008765 | 21.67° C | 51% | 1009.7 hPa | 0 mm | 2.24 m/s, 112° | - | - |
| 1778008464 | 22.22° C | 47% | 1009.6 hPa | 0 mm | 0.45 m/s, 297° | - | - |
| 1778008160 | 21.67° C | 53% | 1010.1 hPa | 0 mm | 0 m/s | - | - |
| 1778007855 | 22.22° C | 52% | 1010.1 hPa | 0 mm | 0.89 m/s, 74° | - | - |
| 1778007551 | 20.56° C | 55% | 1010.1 hPa | 0 mm | 0.45 m/s, 127° | - | - |
| 1778007249 | 21.11° C | 55% | 1010.1 hPa | 0 mm | 0.45 m/s, 132° | - | - |
| 1778006944 | 21.67° C | 52% | 1010.2 hPa | 0 mm | 0.45 m/s, 113° | - | - |
| 1778006641 | 21.11° C | 56% | 1010.4 hPa | 0 mm | 0 m/s | - | - |
| 1778006338 | 20.56° C | 53% | 1010.4 hPa | 0 mm | 0.45 m/s, 37° | - | - |
| 1778006035 | 21.67° C | 53% | 1010.3 hPa | 0 mm | 1.79 m/s, 96° | - | - |
| 1778005732 | 22.22° C | 51% | 1010.4 hPa | 0 mm | 0.89 m/s, 187° | - | - |
| 1778005429 | 21.67° C | 52% | 1010.4 hPa | 0 mm | 0.89 m/s, 140° | - | - |
| 1778005125 | 21.11° C | 55% | 1010.5 hPa | 0 mm | 0 m/s | - | - |
* Rain latest hour (hover to see other rain measurements)
** Current wind speed in m/s (hover to see current wind gust speed)